createdAt,value
2018-11-14T00:02:32.050Z,98493.69
2018-11-14T00:07:26.830Z,98494.40
2018-11-14T00:12:21.563Z,98480.00
2018-11-14T00:17:16.708Z,98473.05
2018-11-14T00:22:11.475Z,98458.75
2018-11-14T00:27:06.590Z,98458.44
2018-11-14T00:32:01.287Z,98447.39
2018-11-14T00:36:56.121Z,98438.03
2018-11-14T00:41:50.812Z,98442.91
2018-11-14T00:46:45.528Z,98436.84
2018-11-14T00:51:40.245Z,98435.81
2018-11-14T00:56:35.020Z,98444.88
2018-11-14T01:01:29.899Z,98445.16
2018-11-14T01:06:24.647Z,98446.91
2018-11-14T01:11:19.444Z,98448.15
2018-11-14T01:16:14.180Z,98442.34
2018-11-14T01:21:08.934Z,98447.63
2018-11-14T01:26:03.619Z,98438.02
2018-11-14T01:30:58.387Z,98439.14
2018-11-14T01:35:53.163Z,98440.63
2018-11-14T01:40:47.852Z,98433.51
2018-11-14T01:45:42.599Z,98431.89
2018-11-14T01:50:37.321Z,98426.13
2018-11-14T01:55:32.088Z,98410.92
2018-11-14T02:00:26.871Z,98408.13
2018-11-14T02:05:24.603Z,98399.24
2018-11-14T02:10:20.546Z,98402.50
2018-11-14T02:15:23.832Z,98402.41
2018-11-14T02:20:21.625Z,98399.72
2018-11-14T02:25:16.868Z,98394.70
2018-11-14T02:30:15.657Z,98395.81
2018-11-14T02:35:10.849Z,98393.27
2018-11-14T02:40:06.932Z,98390.17
2018-11-14T02:45:01.671Z,98390.97
2018-11-14T02:49:56.421Z,98394.88
2018-11-14T02:54:51.158Z,98383.98
2018-11-14T02:59:45.833Z,98377.36
2018-11-14T03:04:40.555Z,98373.79
2018-11-14T03:09:35.265Z,98378.20
2018-11-14T03:14:30.001Z,98383.81
2018-11-14T03:19:24.751Z,98380.56
2018-11-14T03:24:19.489Z,98375.20
2018-11-14T03:29:14.252Z,98381.23
2018-11-14T03:34:09.168Z,98382.72
2018-11-14T03:39:04.582Z,98384.69
2018-11-14T03:43:59.336Z,98387.55
2018-11-14T03:48:54.056Z,98392.97
2018-11-14T03:53:48.941Z,98387.11
2018-11-14T03:58:43.659Z,98391.23
2018-11-14T04:03:38.487Z,98390.91
2018-11-14T04:08:33.251Z,98383.45
2018-11-14T04:13:28.007Z,98389.06
2018-11-14T04:18:22.737Z,98382.80
2018-11-14T04:23:17.458Z,98388.09
2018-11-14T04:28:12.163Z,98381.02
2018-11-14T04:33:07.274Z,98376.00
2018-11-14T04:38:02.045Z,98379.73
2018-11-14T04:42:56.741Z,98381.78
2018-11-14T04:47:51.608Z,98377.09
2018-11-14T04:52:47.009Z,98376.53
2018-11-14T04:57:42.623Z,98373.28
2018-11-14T05:02:37.487Z,98371.91
2018-11-14T05:07:32.123Z,98369.64
2018-11-14T05:12:26.856Z,98356.66
2018-11-14T05:17:21.587Z,98354.92
2018-11-14T05:22:16.326Z,98363.09
2018-11-14T05:27:11.038Z,98356.31
2018-11-14T05:32:05.827Z,98360.67
2018-11-14T05:37:00.787Z,98361.23
2018-11-14T05:41:55.556Z,98361.48
2018-11-14T05:46:50.280Z,98360.28
2018-11-14T05:51:45.110Z,98359.18
2018-11-14T05:56:39.848Z,98363.20
2018-11-14T06:01:34.574Z,98362.61
2018-11-14T06:06:29.316Z,98356.94
2018-11-14T06:11:23.999Z,98358.60
2018-11-14T06:16:29.645Z,98351.83
2018-11-14T06:21:24.400Z,98350.17
2018-11-14T06:26:19.136Z,98343.86
2018-11-14T06:31:13.825Z,98351.97
2018-11-14T06:36:08.574Z,98351.69
2018-11-14T06:41:06.255Z,98357.34
2018-11-14T06:46:00.974Z,98353.98
2018-11-14T06:50:55.698Z,98350.39
2018-11-14T06:55:50.484Z,98362.61
2018-11-14T07:00:45.225Z,98368.86
2018-11-14T07:05:40.039Z,98366.21
2018-11-14T07:10:36.109Z,98366.39
2018-11-14T07:15:30.901Z,98365.91
2018-11-14T07:20:27.827Z,98353.80
2018-11-14T07:25:22.583Z,98366.02
2018-11-14T07:30:26.226Z,98361.53
2018-11-14T07:35:21.044Z,98362.63
2018-11-14T07:40:15.775Z,98363.86
2018-11-14T07:45:13.409Z,98363.41
2018-11-14T07:50:15.706Z,98371.79
2018-11-14T07:55:11.855Z,98359.59
2018-11-14T08:00:13.327Z,98356.42
2018-11-14T08:05:08.368Z,98353.39
2018-11-14T08:10:03.251Z,98347.66
2018-11-14T08:14:58.252Z,98355.11
2018-11-14T08:19:53.048Z,98355.56
2018-11-14T08:24:47.806Z,98357.88
2018-11-14T08:29:42.590Z,98346.63
2018-11-14T08:34:37.362Z,98342.16
2018-11-14T08:39:32.097Z,98337.39
2018-11-14T08:44:26.850Z,98336.59
2018-11-14T08:49:21.621Z,98327.06
2018-11-14T08:54:16.428Z,98322.44
2018-11-14T08:59:11.196Z,98312.84
2018-11-14T09:04:07.541Z,98322.06
2018-11-14T09:09:02.463Z,98311.57
2018-11-14T09:13:57.276Z,98309.66
2018-11-14T09:18:52.217Z,98312.73
2018-11-14T09:23:47.932Z,98322.62
2018-11-14T09:28:42.712Z,98318.61
2018-11-14T09:33:37.460Z,98318.89
2018-11-14T09:38:32.366Z,98318.58
2018-11-14T09:43:27.158Z,98310.16
2018-11-14T09:48:21.937Z,98305.02
2018-11-14T09:53:16.737Z,98306.83
2018-11-14T09:58:11.512Z,98305.48
2018-11-14T10:03:12.244Z,98307.18
2018-11-14T10:08:07.277Z,98303.65
2018-11-14T10:13:02.194Z,98307.91
2018-11-14T10:17:57.050Z,98306.50
2018-11-14T10:22:52.131Z,98308.06
2018-11-14T10:27:47.673Z,98301.92
2018-11-14T10:32:43.466Z,98288.28
2018-11-14T10:37:38.709Z,98279.17
2018-11-14T10:42:42.770Z,98280.09
2018-11-14T10:47:37.563Z,98274.08
2018-11-14T10:52:32.537Z,98274.00
2018-11-14T10:57:27.348Z,98272.97
2018-11-14T11:02:27.132Z,98269.89
2018-11-14T11:07:26.896Z,98263.34
2018-11-14T11:12:26.845Z,98253.86
2018-11-14T11:17:25.656Z,98251.13
2018-11-14T11:22:20.475Z,98241.63
2018-11-14T11:27:15.297Z,98239.01
2018-11-14T11:32:10.176Z,98245.09
2018-11-14T11:37:05.228Z,98225.23
2018-11-14T11:42:00.070Z,98231.28
2018-11-14T11:47:07.925Z,98228.06
2018-11-14T11:52:02.817Z,98217.73
2018-11-14T11:56:57.667Z,98215.02
2018-11-14T12:01:52.464Z,98203.83
2018-11-14T12:06:47.303Z,98206.91
2018-11-14T12:11:42.140Z,98207.00
2018-11-14T12:16:37.255Z,98211.36
2018-11-14T12:21:32.068Z,98205.31
2018-11-14T12:26:26.940Z,98210.84
2018-11-14T12:31:21.729Z,98210.08
2018-11-14T12:36:16.597Z,98211.16
2018-11-14T12:41:11.410Z,98206.70
2018-11-14T12:46:06.480Z,98196.25
2018-11-14T12:51:01.349Z,98204.30
2018-11-14T12:55:56.146Z,98205.98
2018-11-14T13:00:50.951Z,98202.53
2018-11-14T13:05:45.733Z,98208.34
2018-11-14T13:27:01.692Z,98203.66
2018-11-14T13:31:59.661Z,98206.98
2018-11-14T13:36:57.666Z,98198.12
2018-11-14T13:41:55.723Z,98202.22
2018-11-14T13:46:52.467Z,98208.95
2018-11-14T13:51:48.901Z,98201.14
2018-11-14T13:56:46.492Z,98211.36
2018-11-14T14:01:41.668Z,98199.89
2018-11-14T14:06:37.292Z,98200.76
2018-11-14T14:11:32.698Z,98194.48
2018-11-14T14:16:27.772Z,98201.04
2018-11-14T14:21:29.182Z,98198.81
2018-11-14T14:26:24.631Z,98196.84
2018-11-14T14:31:19.497Z,98198.78
2018-11-14T14:36:14.754Z,98204.86
2018-11-14T14:41:09.556Z,98199.58
2018-11-14T14:46:04.737Z,98206.42
2018-11-14T14:51:00.771Z,98201.40
2018-11-14T14:55:56.076Z,98206.60
2018-11-14T15:00:50.909Z,98208.23
2018-11-14T15:05:45.772Z,98204.67
2018-11-14T15:10:41.239Z,98201.06
2018-11-14T15:15:36.104Z,98198.45
2018-11-14T15:20:33.168Z,98198.06
2018-11-14T15:26:56.687Z,98193.38
2018-11-14T15:31:52.472Z,98187.90
2018-11-14T15:36:47.404Z,98190.17
2018-11-14T15:41:43.303Z,98193.59
2018-11-14T15:46:40.976Z,98190.25
2018-11-14T15:51:35.823Z,98189.87
2018-11-14T15:56:50.250Z,98189.53
2018-11-14T16:01:45.621Z,98185.57
2018-11-14T16:06:40.857Z,98192.09
2018-11-14T16:11:35.661Z,98191.02
2018-11-14T16:16:30.531Z,98189.02
2018-11-14T16:21:25.418Z,98189.48
2018-11-14T16:26:20.849Z,98196.02
2018-11-14T16:31:16.769Z,98201.63
2018-11-14T16:36:12.451Z,98200.70
2018-11-14T16:41:15.001Z,98200.89
2018-11-14T16:46:09.924Z,98196.13
2018-11-14T16:51:05.804Z,98195.41
2018-11-14T16:56:00.643Z,98197.83
2018-11-14T17:00:57.751Z,98195.11
2018-11-14T17:05:56.396Z,98193.34
2018-11-14T17:10:51.724Z,98194.98
2018-11-14T17:15:46.621Z,98193.80
2018-11-14T17:20:41.962Z,98186.23
2018-11-14T17:25:36.762Z,98186.53
2018-11-14T17:30:32.361Z,98184.72
2018-11-14T19:01:33.427Z,98162.34
2018-11-14T19:06:56.689Z,98164.16
2018-11-14T19:30:16.799Z,98157.97
2018-11-14T19:57:16.480Z,98161.55
2018-11-14T20:02:11.505Z,98166.49
2018-11-14T20:07:06.878Z,98162.19
2018-11-14T20:12:01.769Z,98155.46
2018-11-14T20:16:56.618Z,98162.84
2018-11-14T20:21:52.206Z,98154.23
2018-11-14T20:26:48.968Z,98163.38
2018-11-14T20:31:44.998Z,98161.75
2018-11-14T20:36:40.378Z,98161.95
2018-11-14T20:41:35.920Z,98161.95
2018-11-14T20:46:30.894Z,98160.81
2018-11-14T20:51:25.715Z,98152.69
2018-11-14T20:56:21.293Z,98149.50
2018-11-14T21:01:16.083Z,98153.72
2018-11-14T21:06:10.992Z,98147.80
2018-11-14T21:11:06.706Z,98150.73
2018-11-14T21:16:11.422Z,98142.38
2018-11-14T21:21:44.357Z,98139.25
2018-11-14T21:55:48.791Z,98119.27
2018-11-14T22:00:54.032Z,98115.66
2018-11-14T22:05:55.908Z,98118.06
2018-11-14T22:15:31.162Z,98114.53
2018-11-14T22:20:29.769Z,98116.22
2018-11-14T22:29:19.994Z,98106.59
2018-11-14T22:34:15.228Z,98101.63
2018-11-14T22:39:15.708Z,98104.92
2018-11-14T22:50:25.209Z,98093.28
2018-11-14T22:55:45.918Z,98093.80
2018-11-14T23:18:18.665Z,98084.73
2018-11-14T23:23:37.007Z,98080.31
2018-11-14T23:28:36.372Z,98080.78
2018-11-14T23:33:43.456Z,98078.00
2018-11-14T23:39:05.293Z,98071.48
2018-11-14T23:44:21.023Z,98070.55
2018-11-14T23:49:43.122Z,98072.50
2018-11-14T23:54:56.721Z,98068.38
